Time;durP1;ratioP1;P1;durP2;ratioP2;P2;SDS_P1;SDS_P2;PMS_P1;PMS_P2;Temp;Humidity;BMP_temperature;BMP_pressure;BME280_temperature;BME280_humidity;BME280_pressure;Samples;Min_cycle;Max_cycle;Signal;HPM_P1;HPM_P2
2023/04/03 00:00:49;;;;;;;5.50;1.30;;;;;;;0.18;76.78;102389.38;105786;1253;70742;-73
2023/04/03 00:03:17;;;;;;;8.00;1.40;;;;;;;0.14;76.88;102385.17;105892;1255;72778;-71
2023/04/03 00:05:45;;;;;;;6.30;1.60;;;;;;;0.11;76.84;102388.62;105838;1254;61336;-72
2023/04/03 00:08:12;;;;;;;7.60;1.90;;;;;;;0.07;77.21;102388.64;105891;1254;61340;-71
2023/04/03 00:10:39;;;;;;;6.20;1.80;;;;;;;0.03;77.48;102389.30;105710;1254;73259;-71
2023/04/03 00:13:07;;;;;;;4.50;2.20;;;;;;;0.00;77.80;102389.62;105872;1257;68799;-70
2023/04/03 00:15:35;;;;;;;4.60;1.30;;;;;;;-0.04;78.02;102389.41;105672;1256;72464;-72
2023/04/03 00:18:02;;;;;;;4.60;1.60;;;;;;;-0.06;78.20;102391.77;105553;1260;62201;-71
2023/04/03 00:20:29;;;;;;;3.60;1.50;;;;;;;-0.09;78.22;102393.98;105731;1254;61271;-71
2023/04/03 00:22:56;;;;;;;5.00;1.50;;;;;;;-0.12;78.50;102396.35;105574;1252;75886;-70
2023/04/03 00:25:23;;;;;;;7.20;1.50;;;;;;;-0.15;79.10;102400.52;105806;1253;70937;-73
2023/04/03 00:27:49;;;;;;;6.70;1.60;;;;;;;-0.18;78.98;102401.49;105799;1257;71246;-71
2023/04/03 00:30:18;;;;;;;6.10;1.70;;;;;;;-0.21;79.19;102403.52;105736;1257;61868;-71
2023/04/03 00:32:48;;;;;;;5.80;1.60;;;;;;;-0.24;79.13;102406.07;105805;1253;61360;-72
2023/04/03 00:35:17;;;;;;;6.60;1.80;;;;;;;-0.27;79.35;102408.65;105692;1257;74740;-70
2023/04/03 00:37:45;;;;;;;6.60;1.70;;;;;;;-0.31;79.48;102410.90;105695;1257;70228;-71
2023/04/03 00:40:14;;;;;;;5.60;1.90;;;;;;;-0.35;79.67;102414.52;105672;1253;72679;-70
2023/04/03 00:42:42;;;;;;;5.40;1.60;;;;;;;-0.39;79.64;102412.95;105775;1253;61258;-72
2023/04/03 00:45:24;;;;;;;4.50;1.70;;;;;;;-0.43;79.74;102415.18;105764;1252;61367;-72
2023/04/03 00:47:51;;;;;;;5.20;1.80;;;;;;;-0.47;79.87;102421.27;105827;1257;74464;-73
2023/04/03 00:50:18;;;;;;;6.20;1.90;;;;;;;-0.51;79.89;102418.80;105829;1253;71026;-70
2023/04/03 00:52:46;;;;;;;7.20;1.90;;;;;;;-0.55;80.08;102418.27;105633;1257;72774;-71
2023/04/03 00:55:14;;;;;;;6.40;2.40;;;;;;;-0.59;80.16;102421.24;105843;1252;61258;-71
2023/04/03 00:57:50;;;;;;;5.60;2.30;;;;;;;-0.64;80.30;102424.37;105801;1254;61830;-72
2023/04/03 01:00:19;;;;;;;5.50;1.90;;;;;;;-0.68;80.56;102428.87;105732;1252;74398;-71
2023/04/03 01:02:46;;;;;;;5.80;1.90;;;;;;;-0.73;80.49;102425.05;105786;1255;71227;-71
2023/04/03 01:05:16;;;;;;;6.30;1.90;;;;;;;-0.76;80.74;102432.67;105762;1254;71975;-71
2023/04/03 01:07:43;;;;;;;6.70;2.10;;;;;;;-0.80;80.87;102429.35;105708;1258;61468;-71
2023/04/03 01:10:14;;;;;;;5.70;1.70;;;;;;;-0.85;80.94;102432.11;105756;1252;61173;-70
2023/04/03 01:12:43;;;;;;;5.90;1.60;;;;;;;-0.89;81.04;102434.84;105803;1257;73490;-73
2023/04/03 01:15:17;;;;;;;5.20;1.90;;;;;;;-0.93;81.19;102432.94;105752;1253;71174;-70
2023/04/03 01:17:56;;;;;;;6.40;1.70;;;;;;;-0.97;81.34;102428.91;105750;1257;71853;-70
2023/04/03 01:20:35;;;;;;;5.60;2.00;;;;;;;-1.00;81.61;102429.22;105815;1254;61260;-70
2023/04/03 01:23:12;;;;;;;5.20;1.70;;;;;;;-1.05;81.83;102431.46;105678;1256;61363;-73
2023/04/03 01:25:41;;;;;;;5.30;1.90;;;;;;;-1.08;82.05;102433.68;105771;1254;72295;-70
2023/04/03 01:28:11;;;;;;;6.10;1.60;;;;;;;-1.11;82.33;102434.30;105775;1255;69768;-71
2023/04/03 01:31:22;;;;;;;4.40;1.50;;;;;;;-1.13;82.44;102435.09;105738;1257;71390;-73
2023/04/03 01:33:49;;;;;;;8.50;1.70;;;;;;;-1.17;82.61;102435.21;105558;1253;61699;-71
2023/04/03 01:36:22;;;;;;;6.10;1.70;;;;;;;-1.19;82.69;102430.95;105853;1254;61247;-70
2023/04/03 01:38:50;;;;;;;6.10;1.70;;;;;;;-1.21;82.94;102435.38;105731;1257;74528;-70
2023/04/03 01:41:17;;;;;;;8.20;1.60;;;;;;;-1.24;82.99;102440.48;105610;1257;69486;-71
2023/04/03 01:43:44;;;;;;;6.70;1.80;;;;;;;-1.26;83.13;102437.45;105847;1253;71219;-71
2023/04/03 01:46:11;;;;;;;6.80;1.90;;;;;;;-1.28;83.30;102436.84;105918;1252;62411;-70
2023/04/03 01:48:38;;;;;;;5.80;1.50;;;;;;;-1.30;83.50;102441.40;105863;1253;62128;-70
2023/04/03 01:51:04;;;;;;;4.70;1.40;;;;;;;-1.31;83.75;102441.13;105933;1257;73136;-71
2023/04/03 01:53:31;;;;;;;5.90;1.70;;;;;;;-1.33;83.66;102443.45;105937;1253;71851;-72
2023/04/03 01:55:58;;;;;;;3.50;1.50;;;;;;;-1.35;83.81;102445.23;105838;1253;72544;-70
2023/04/03 01:58:25;;;;;;;5.60;1.70;;;;;;;-1.37;83.99;102447.04;105914;1254;61245;-71
2023/04/03 02:00:52;;;;;;;5.10;1.60;;;;;;;-1.39;84.16;102448.15;105811;1256;61261;-70
2023/04/03 02:03:18;;;;;;;4.80;1.50;;;;;;;-1.41;84.15;102451.35;105767;1254;74649;-69
2023/04/03 02:05:45;;;;;;;6.60;1.60;;;;;;;-1.42;84.43;102453.48;105769;1257;70931;-72
2023/04/03 02:08:12;;;;;;;4.70;1.80;;;;;;;-1.44;84.25;102454.24;105669;1252;71977;-75
2023/04/03 02:10:40;;;;;;;7.00;1.70;;;;;;;-1.46;84.55;102453.96;105713;1257;61736;-70
2023/04/03 02:13:15;;;;;;;6.70;1.60;;;;;;;-1.47;84.68;102451.57;105790;1257;61636;-73
2023/04/03 02:15:42;;;;;;;7.60;2.10;;;;;;;-1.49;84.64;102449.36;105727;1256;73515;-72
2023/04/03 02:18:09;;;;;;;9.40;2.00;;;;;;;-1.50;84.72;102450.62;105811;1253;69706;-70
2023/04/03 02:20:37;;;;;;;6.10;2.00;;;;;;;-1.52;84.68;102452.25;105656;1255;73855;-71
2023/04/03 02:23:04;;;;;;;5.90;1.90;;;;;;;-1.54;84.81;102448.50;105622;1255;62354;-73
2023/04/03 02:25:31;;;;;;;7.70;1.70;;;;;;;-1.55;85.08;102448.73;105780;1253;62847;-70
2023/04/03 02:27:58;;;;;;;6.40;1.50;;;;;;;-1.57;84.94;102449.83;105660;1258;74685;-71
2023/04/03 02:30:26;;;;;;;6.10;1.60;;;;;;;-1.59;85.28;102453.19;105588;1258;69061;-71
2023/04/03 02:32:53;;;;;;;6.50;1.60;;;;;;;-1.61;85.37;102454.34;105660;1254;72532;-71
2023/04/03 02:35:20;;;;;;;6.70;1.60;;;;;;;-1.64;85.42;102454.77;105853;1254;62182;-69
2023/04/03 02:37:47;;;;;;;6.40;1.60;;;;;;;-1.67;85.45;102453.29;105762;1253;61303;-74
2023/04/03 02:40:13;;;;;;;7.40;1.50;;;;;;;-1.70;85.49;102451.15;105975;1253;73131;-71
2023/04/03 02:42:40;;;;;;;5.50;1.30;;;;;;;-1.73;85.57;102453.66;105805;1254;71625;-71
2023/04/03 02:45:09;;;;;;;6.00;1.60;;;;;;;-1.76;85.75;102456.36;105702;1256;71312;-71
2023/04/03 02:47:36;;;;;;;7.70;1.60;;;;;;;-1.78;85.84;102458.70;105799;1252;61761;-72
2023/04/03 02:50:04;;;;;;;6.80;1.40;;;;;;;-1.81;85.86;102459.66;105480;1254;61369;-70
2023/04/03 02:52:31;;;;;;;7.20;1.40;;;;;;;-1.84;85.96;102458.02;105940;1253;74752;-71
2023/04/03 02:54:58;;;;;;;5.70;1.60;;;;;;;-1.86;86.41;102461.20;105743;1258;71098;-71
2023/04/03 02:57:25;;;;;;;5.30;1.40;;;;;;;-1.88;86.66;102463.69;105931;1252;72163;-70
2023/04/03 02:59:51;;;;;;;5.80;1.90;;;;;;;-1.88;86.88;102464.41;105741;1258;61700;-71
2023/04/03 03:02:18;;;;;;;7.90;1.70;;;;;;;-1.90;86.78;102464.45;105775;1254;61620;-71
2023/04/03 03:04:45;;;;;;;5.50;1.80;;;;;;;-1.92;86.72;102464.17;105805;1253;73550;-72
2023/04/03 03:07:11;;;;;;;6.20;1.70;;;;;;;-1.93;86.78;102467.52;105865;1254;71392;-70
2023/04/03 03:09:38;;;;;;;8.70;1.90;;;;;;;-1.96;86.95;102460.31;105849;1254;71111;-71
2023/04/03 03:12:07;;;;;;;6.00;1.70;;;;;;;-1.97;87.02;102462.96;105750;1253;61723;-71
2023/04/03 03:14:37;;;;;;;4.80;1.60;;;;;;;-1.98;86.84;102466.14;105695;1254;61219;-72
2023/04/03 03:17:07;;;;;;;5.50;1.50;;;;;;;-1.99;87.17;102467.22;105748;1257;74635;-69
2023/04/03 03:19:33;;;;;;;8.40;2.30;;;;;;;-2.01;87.35;102463.98;105898;1257;70938;-69
2023/04/03 03:22:00;;;;;;;7.10;1.80;;;;;;;-2.02;87.42;102463.31;105872;1256;71439;-70
2023/04/03 03:24:27;;;;;;;5.70;1.50;;;;;;;-2.05;87.41;102468.76;105709;1256;61612;-72
2023/04/03 03:26:53;;;;;;;5.70;1.50;;;;;;;-2.06;87.43;102474.16;105685;1258;61394;-73
2023/04/03 03:29:20;;;;;;;6.80;1.60;;;;;;;-2.07;87.49;102474.73;105604;1253;73231;-69
2023/04/03 03:31:47;;;;;;;6.80;1.60;;;;;;;-2.10;87.38;102473.08;105730;1253;69917;-73
2023/04/03 03:34:14;;;;;;;5.70;1.80;;;;;;;-2.11;87.39;102479.34;105720;1257;71354;-74
2023/04/03 03:36:41;;;;;;;6.00;1.50;;;;;;;-2.13;87.58;102476.83;105786;1256;61752;-71
2023/04/03 03:39:07;;;;;;;7.20;2.30;;;;;;;-2.15;87.65;102476.88;105750;1256;62363;-74
2023/04/03 03:41:34;;;;;;;6.10;1.50;;;;;;;-2.16;87.59;102477.27;105679;1253;74863;-72
2023/04/03 03:44:00;;;;;;;6.50;1.60;;;;;;;-2.17;87.76;102478.87;105681;1253;61716;-71
2023/04/03 03:46:36;;;;;;;5.40;1.80;;;;;;;-2.19;87.87;102479.45;105678;1254;61261;-71
2023/04/03 03:49:03;;;;;;;8.40;1.80;;;;;;;-2.20;87.94;102480.54;105725;1253;62675;-72
2023/04/03 03:51:29;;;;;;;6.90;1.60;;;;;;;-2.22;88.25;102480.24;105768;1253;61258;-70
2023/04/03 03:53:56;;;;;;;6.60;1.60;;;;;;;-2.22;88.70;102481.09;105898;1255;73351;-74
2023/04/03 03:56:23;;;;;;;5.80;1.70;;;;;;;-2.23;88.90;102483.04;105733;1257;69792;-72
2023/04/03 03:58:50;;;;;;;5.60;1.30;;;;;;;-2.23;88.67;102481.66;105644;1254;72565;-70
2023/04/03 04:01:17;;;;;;;5.70;1.60;;;;;;;-2.24;88.80;102483.60;105857;1256;62281;-72
2023/04/03 04:03:43;;;;;;;5.10;1.50;;;;;;;-2.25;88.99;102481.38;105819;1253;61392;-70
2023/04/03 04:06:10;;;;;;;7.30;1.80;;;;;;;-2.26;88.91;102485.39;105845;1254;73464;-71
2023/04/03 04:08:37;;;;;;;7.70;2.20;;;;;;;-2.26;89.21;102486.59;105736;1253;71763;-72
2023/04/03 04:11:03;;;;;;;6.90;2.40;;;;;;;-2.26;89.45;102487.46;105817;1253;71509;-73
2023/04/03 04:13:30;;;;;;;5.40;1.60;;;;;;;-2.27;89.42;102484.38;105871;1255;61476;-72
2023/04/03 04:15:57;;;;;;;8.10;1.60;;;;;;;-2.28;89.25;102484.20;105508;1260;61208;-70
2023/04/03 04:18:23;;;;;;;6.70;1.70;;;;;;;-2.28;89.32;102481.62;105776;1257;74751;-71
2023/04/03 04:20:50;;;;;;;5.40;1.70;;;;;;;-2.28;89.51;102483.04;105780;1257;71622;-70
2023/04/03 04:23:18;;;;;;;5.60;1.50;;;;;;;-2.29;89.58;102482.85;105588;1256;72515;-70
2023/04/03 04:25:46;;;;;;;5.50;1.40;;;;;;;-2.29;89.69;102478.91;105706;1255;62417;-72
2023/04/03 04:28:14;;;;;;;6.50;1.70;;;;;;;-2.29;89.77;102480.98;105786;1257;61214;-71
2023/04/03 04:30:40;;;;;;;7.10;1.70;;;;;;;-2.30;89.48;102481.52;105715;1257;73226;-71
2023/04/03 04:33:08;;;;;;;6.90;1.90;;;;;;;-2.30;89.73;102482.38;105465;1258;70989;-72
2023/04/03 04:35:34;;;;;;;6.30;1.60;;;;;;;-2.31;89.78;102487.27;105813;1257;73209;-71
2023/04/03 04:38:02;;;;;;;5.60;1.80;;;;;;;-2.32;89.76;102487.98;105632;1253;61251;-72
2023/04/03 04:40:29;;;;;;;7.40;2.10;;;;;;;-2.33;89.78;102490.12;105928;1254;61581;-70
2023/04/03 04:42:56;;;;;;;7.30;1.60;;;;;;;-2.33;89.73;102497.05;105836;1253;72485;-71
2023/04/03 04:45:22;;;;;;;5.30;1.70;;;;;;;-2.33;89.73;102499.30;105717;1254;69636;-70
2023/04/03 04:47:51;;;;;;;7.20;2.00;;;;;;;-2.34;89.79;102497.41;105938;1256;72182;-71
2023/04/03 04:50:18;;;;;;;7.80;1.70;;;;;;;-2.35;89.68;102496.91;105927;1257;61302;-71
2023/04/03 04:52:45;;;;;;;5.50;1.50;;;;;;;-2.35;89.71;102495.55;105855;1258;61270;-70
2023/04/03 04:55:12;;;;;;;7.10;1.60;;;;;;;-2.35;89.83;102500.73;105933;1254;74495;-70
2023/04/03 04:57:39;;;;;;;9.10;1.80;;;;;;;-2.35;89.74;102500.21;105418;1259;71330;-70
2023/04/03 05:00:06;;;;;;;7.30;1.70;;;;;;;-2.35;89.92;102501.09;105719;1257;72743;-74
2023/04/03 05:02:33;;;;;;;8.70;2.00;;;;;;;-2.35;89.85;102503.17;105523;1255;61713;-71
2023/04/03 05:05:00;;;;;;;5.00;1.70;;;;;;;-2.34;89.87;102502.44;105782;1254;61260;-70
2023/04/03 05:07:29;;;;;;;6.20;1.60;;;;;;;-2.32;89.87;102505.85;105634;1258;73468;-73
2023/04/03 05:09:56;;;;;;;7.80;2.20;;;;;;;-2.31;89.74;102505.81;105792;1254;61883;-69
2023/04/03 05:12:23;;;;;;;10.20;1.70;;;;;;;-2.30;89.71;102521.72;105774;1253;61201;-70
2023/04/03 05:14:49;;;;;;;6.20;1.70;;;;;;;-2.29;89.83;102525.15;105423;1255;61933;-71
2023/04/03 05:17:16;;;;;;;6.20;2.00;;;;;;;-2.27;89.90;102526.15;105846;1256;61250;-71
2023/04/03 05:19:42;;;;;;;5.40;1.40;;;;;;;-2.25;89.89;102524.02;105777;1257;73413;-72
2023/04/03 05:22:09;;;;;;;8.20;1.80;;;;;;;-2.22;90.29;102526.86;105742;1253;70183;-71
2023/04/03 05:24:36;;;;;;;7.70;2.10;;;;;;;-2.19;90.31;102525.38;105807;1256;72702;-73
2023/04/03 05:27:03;;;;;;;5.80;1.60;;;;;;;-2.15;90.39;102525.93;105553;1253;61838;-69
2023/04/03 05:29:30;;;;;;;7.60;2.20;;;;;;;-2.09;90.41;102527.52;105793;1253;61634;-70
2023/04/03 05:31:57;;;;;;;10.20;2.00;;;;;;;-2.03;90.41;102531.46;105801;1257;74700;-71
2023/04/03 05:34:23;;;;;;;7.20;1.80;;;;;;;-1.96;90.52;102538.20;105699;1258;71312;-71
2023/04/03 05:36:50;;;;;;;7.90;1.70;;;;;;;-1.90;90.71;102539.89;105412;1256;207019;-70
2023/04/03 05:39:17;;;;;;;6.10;1.60;;;;;;;-1.82;90.61;102549.17;105444;1258;62431;-73
2023/04/03 05:41:44;;;;;;;7.30;2.00;;;;;;;-1.75;90.47;102546.54;105737;1255;61359;-70
2023/04/03 05:44:11;;;;;;;7.60;1.80;;;;;;;-1.68;90.30;102551.67;105416;1256;74762;-69
2023/04/03 05:46:38;;;;;;;7.80;2.10;;;;;;;-1.59;90.31;102554.68;105882;1256;61228;-72
2023/04/03 05:49:04;;;;;;;8.40;2.10;;;;;;;-1.49;90.18;102558.88;105730;1253;71687;-70
2023/04/03 05:51:35;;;;;;;6.40;1.90;;;;;;;-1.40;90.07;102559.27;105815;1256;61778;-72
2023/04/03 05:54:20;;;;;;;5.10;1.80;;;;;;;-1.32;90.02;102561.58;105858;1253;62213;-70
2023/04/03 05:56:47;;;;;;;7.20;1.80;;;;;;;-1.19;89.72;102565.67;105656;1253;74714;-72
2023/04/03 05:59:14;;;;;;;5.80;2.10;;;;;;;-1.09;89.75;102567.92;105797;1255;70119;-70
2023/04/03 06:01:43;;;;;;;9.90;2.30;;;;;;;-0.97;89.68;102570.98;105868;1253;71199;-70
2023/04/03 06:04:10;;;;;;;6.40;2.00;;;;;;;-0.86;89.49;102572.32;105943;1256;61304;-71
2023/04/03 06:06:45;;;;;;;9.60;2.20;;;;;;;-0.76;89.06;102572.69;105531;1256;61740;-73
2023/04/03 06:09:12;;;;;;;6.80;1.70;;;;;;;-0.65;88.90;102575.92;105819;1258;74729;-70
2023/04/03 06:11:38;;;;;;;6.60;1.80;;;;;;;-0.55;88.55;102579.73;105562;1258;71327;-72
2023/04/03 06:14:05;;;;;;;5.00;1.60;;;;;;;-0.46;88.28;102583.38;105916;1254;72755;-71
2023/04/03 06:16:32;;;;;;;5.10;1.80;;;;;;;-0.35;88.04;102587.88;105857;1253;61213;-71
2023/04/03 06:18:59;;;;;;;5.40;1.70;;;;;;;-0.24;88.07;102582.22;105881;1254;61263;-74
2023/04/03 06:21:26;;;;;;;6.60;2.10;;;;;;;-0.11;87.79;102583.98;105833;1253;74458;-70
2023/04/03 06:23:53;;;;;;;6.10;1.80;;;;;;;0.00;87.24;102585.80;105756;1253;69968;-70
2023/04/03 06:26:20;;;;;;;6.20;1.80;;;;;;;0.12;86.97;102587.81;105830;1254;72370;-71
2023/04/03 06:28:47;;;;;;;7.90;1.70;;;;;;;0.21;86.53;102589.70;105762;1253;61813;-70
2023/04/03 06:31:13;;;;;;;6.50;1.60;;;;;;;0.30;86.26;102590.54;105922;1256;61158;-69
2023/04/03 06:33:40;;;;;;;4.50;1.60;;;;;;;0.43;86.22;102592.30;105564;1256;73536;-69
2023/04/03 06:36:07;;;;;;;4.90;1.90;;;;;;;0.54;85.58;102589.39;105726;1253;69642;-71
2023/04/03 06:38:34;;;;;;;6.00;2.00;;;;;;;0.64;85.32;102585.16;105482;1255;72656;-69
2023/04/03 06:41:01;;;;;;;7.80;1.70;;;;;;;0.74;84.87;102590.13;105793;1254;61229;-70
2023/04/03 06:43:27;;;;;;;6.30;1.50;;;;;;;0.86;84.69;102588.08;105869;1253;61311;-72
2023/04/03 06:45:54;;;;;;;6.70;1.70;;;;;;;0.99;84.40;102593.25;105756;1256;74384;-70
2023/04/03 06:48:21;;;;;;;4.80;1.40;;;;;;;1.12;83.83;102595.33;105905;1256;72107;-72
2023/04/03 06:50:48;;;;;;;4.90;1.50;;;;;;;1.23;83.49;102597.83;105672;1258;73335;-75
2023/04/03 06:53:14;;;;;;;7.20;1.70;;;;;;;1.33;82.50;102600.13;105730;1253;61224;-70
2023/04/03 06:55:41;;;;;;;6.10;1.80;;;;;;;1.42;82.25;102606.20;105955;1256;61231;-70
2023/04/03 06:58:07;;;;;;;4.00;1.20;;;;;;;1.50;81.26;102608.10;105706;1253;73262;-70
2023/04/03 07:00:34;;;;;;;4.10;1.10;;;;;;;1.59;80.89;102615.71;105587;1258;69724;-70
2023/04/03 07:03:09;;;;;;;6.90;1.30;;;;;;;1.71;80.92;102612.38;105904;1253;72215;-70
2023/04/03 07:05:36;;;;;;;4.10;1.40;;;;;;;1.85;80.67;102612.98;105783;1257;61219;-71
2023/04/03 07:08:03;;;;;;;4.50;1.30;;;;;;;1.97;79.89;102613.63;105435;1256;61301;-70
2023/04/03 07:10:30;;;;;;;3.30;1.30;;;;;;;2.08;79.31;102616.96;105855;1253;73209;-71
2023/04/03 07:12:57;;;;;;;5.30;1.50;;;;;;;2.17;78.74;102623.16;105516;1258;71138;-70
2023/04/03 07:15:24;;;;;;;4.90;1.30;;;;;;;2.31;78.37;102627.41;105683;1253;70987;-73
2023/04/03 07:17:51;;;;;;;5.90;1.30;;;;;;;2.41;77.99;102627.97;105792;1254;61652;-71
2023/04/03 07:20:20;;;;;;;6.40;1.40;;;;;;;2.55;78.05;102630.94;105804;1254;61714;-70
2023/04/03 07:22:46;;;;;;;3.50;1.20;;;;;;;2.72;77.49;102632.92;105671;1253;73869;-69
2023/04/03 07:25:13;;;;;;;5.10;1.30;;;;;;;2.84;76.72;102634.04;105904;1258;62295;-70
2023/04/03 07:27:39;;;;;;;5.90;1.80;;;;;;;2.96;75.67;102639.42;105550;1256;61870;-72
2023/04/03 07:30:07;;;;;;;5.90;1.30;;;;;;;3.06;75.29;102639.95;105925;1258;61349;-69
2023/04/03 07:32:36;;;;;;;5.30;1.40;;;;;;;3.19;74.89;102642.61;105805;1253;61258;-71
2023/04/03 07:35:04;;;;;;;5.70;1.20;;;;;;;3.31;74.68;102640.76;105724;1257;73811;-72
2023/04/03 07:37:30;;;;;;;3.90;1.30;;;;;;;3.44;74.00;102645.14;105831;1256;70959;-69
2023/04/03 07:39:58;;;;;;;3.80;1.00;;;;;;;3.56;73.43;102644.33;105791;1254;71431;-71
2023/04/03 07:42:27;;;;;;;6.30;1.20;;;;;;;3.58;71.32;102644.42;105807;1258;61223;-68
2023/04/03 07:44:54;;;;;;;4.90;1.20;;;;;;;3.64;71.63;102642.70;105848;1254;61291;-72
2023/04/03 07:47:21;;;;;;;3.60;1.20;;;;;;;3.73;71.20;102643.98;105701;1254;73833;-74
2023/04/03 07:49:48;;;;;;;3.00;0.90;;;;;;;3.88;71.80;102642.27;105802;1253;71205;-73
2023/04/03 07:52:15;;;;;;;5.30;1.10;;;;;;;4.03;70.35;102639.20;105533;1256;70513;-72
2023/04/03 07:54:42;;;;;;;5.10;1.30;;;;;;;4.16;69.77;102640.93;105879;1255;61554;-69
2023/04/03 07:57:08;;;;;;;5.20;1.00;;;;;;;4.25;68.62;102644.43;105753;1256;61462;-70
2023/04/03 07:59:35;;;;;;;4.70;1.20;;;;;;;4.37;68.73;102640.29;105818;1253;61285;-69
2023/04/03 08:02:04;;;;;;;4.80;1.00;;;;;;;4.53;68.78;102635.91;105822;1256;70410;-69
2023/04/03 08:04:31;;;;;;;3.80;1.00;;;;;;;4.71;68.49;102637.65;105910;1255;71507;-69
2023/04/03 08:06:58;;;;;;;3.80;0.90;;;;;;;4.83;67.11;102644.80;105668;1256;61346;-73
2023/04/03 08:09:24;;;;;;;4.30;1.00;;;;;;;4.95;65.96;102644.15;105404;1254;61226;-70
2023/04/03 08:11:53;;;;;;;3.30;1.00;;;;;;;5.01;64.65;102642.58;105894;1258;73357;-70
2023/04/03 08:14:20;;;;;;;4.40;1.10;;;;;;;5.13;65.63;102637.27;105468;1259;70606;-73
2023/04/03 08:16:48;;;;;;;5.00;1.30;;;;;;;5.25;64.89;102639.38;105917;1257;72058;-74
2023/04/03 08:19:17;;;;;;;5.90;1.40;;;;;;;5.31;64.27;102639.73;105778;1258;61754;-72
2023/04/03 08:21:52;;;;;;;6.00;1.30;;;;;;;5.34;64.04;102644.85;105450;1256;61223;-70
2023/04/03 08:24:19;;;;;;;3.00;1.00;;;;;;;5.39;63.26;102646.64;105781;1256;72793;-70
2023/04/03 08:26:45;;;;;;;2.90;0.90;;;;;;;5.47;63.38;102646.85;105843;1253;69660;-73
2023/04/03 08:29:13;;;;;;;4.30;1.20;;;;;;;5.50;62.44;102640.52;105749;1253;61280;-70
2023/04/03 08:31:39;;;;;;;5.60;1.30;;;;;;;5.55;62.74;102644.56;105875;1253;62474;-69
2023/04/03 08:34:06;;;;;;;3.70;1.10;;;;;;;5.58;61.63;102645.10;105799;1258;61111;-72
2023/04/03 08:36:32;;;;;;;6.00;1.40;;;;;;;5.61;62.04;102649.48;105660;1253;61318;-71
2023/04/03 08:38:59;;;;;;;4.30;1.40;;;;;;;5.71;62.08;102648.84;105806;1257;61280;-70
2023/04/03 08:41:38;;;;;;;4.40;1.20;;;;;;;5.80;60.83;102646.38;105488;1256;70192;-70
2023/04/03 08:44:35;;;;;;;4.00;1.10;;;;;;;5.86;59.93;102643.54;105742;1254;61685;-69
2023/04/03 08:47:12;;;;;;;4.20;1.30;;;;;;;5.93;59.14;102640.64;105946;1258;61177;-70
2023/04/03 08:49:47;;;;;;;5.10;1.20;;;;;;;5.96;58.62;102641.36;105966;1252;73257;-71
2023/04/03 08:52:20;;;;;;;3.70;1.20;;;;;;;5.97;57.59;102635.33;105457;1254;71166;-72
2023/04/03 08:54:55;;;;;;;3.20;1.20;;;;;;;6.01;57.36;102636.84;105566;1256;72666;-71
2023/04/03 08:57:33;;;;;;;5.20;1.20;;;;;;;6.13;56.54;102632.42;105765;1258;61216;-70
2023/04/03 09:00:07;;;;;;;5.10;1.10;;;;;;;6.16;54.54;102629.77;105802;1256;61267;-71
2023/04/03 09:02:41;;;;;;;4.40;1.30;;;;;;;6.29;56.16;102630.11;105759;1256;73262;-69
2023/04/03 09:05:16;;;;;;;4.00;1.30;;;;;;;6.47;55.68;102634.73;105853;1257;71763;-72
2023/04/03 09:08:11;;;;;;;3.10;0.90;;;;;;;6.65;55.59;102633.80;105751;1258;72474;-72
2023/04/03 09:10:41;;;;;;;3.60;1.10;;;;;;;6.78;55.87;102630.61;105835;1259;61385;-70
2023/04/03 09:13:48;;;;;;;3.20;1.10;;;;;;;7.05;55.31;102631.94;105902;1253;61154;-71
2023/04/03 09:16:44;;;;;;;3.40;0.80;;;;;;;7.34;53.04;102630.83;105532;1256;74666;-69
2023/04/03 09:19:42;;;;;;;2.40;0.90;;;;;;;7.56;50.49;102631.47;105649;1256;70950;-71
2023/04/03 09:22:16;;;;;;;3.30;1.00;;;;;;;7.69;50.33;102628.91;105679;1255;71775;-69
2023/04/03 09:24:47;;;;;;;3.20;0.80;;;;;;;7.90;50.15;102629.42;105826;1253;61333;-69
2023/04/03 09:27:13;;;;;;;2.60;1.00;;;;;;;8.11;49.91;102619.30;105856;1257;61249;-70
2023/04/03 09:29:43;;;;;;;3.10;0.90;;;;;;;8.30;49.06;102621.89;105993;1255;74940;-70
2023/04/03 09:32:29;;;;;;;3.20;0.70;;;;;;;8.42;47.71;102623.19;105749;1253;71359;-74
2023/04/03 09:35:03;;;;;;;3.50;0.90;;;;;;;8.55;45.17;102622.02;105776;1253;72689;-72
2023/04/03 09:37:48;;;;;;;3.10;0.70;;;;;;;8.63;45.28;102614.39;105841;1253;61246;-73
2023/04/03 09:40:38;;;;;;;2.60;0.70;;;;;;;8.76;46.12;102615.51;105902;1267;61171;-70
2023/04/03 09:43:17;;;;;;;4.20;0.80;;;;;;;8.89;43.90;102608.02;105872;1255;73329;-72
2023/04/03 09:45:47;;;;;;;2.70;0.80;;;;;;;8.84;43.99;102610.85;105757;1257;70913;-71
2023/04/03 09:48:13;;;;;;;3.40;0.70;;;;;;;8.96;44.31;102609.05;105704;1258;73002;-69
2023/04/03 09:50:48;;;;;;;5.50;1.20;;;;;;;9.15;43.82;102608.88;106059;1255;62013;-68
2023/04/03 09:53:29;;;;;;;3.40;0.90;;;;;;;9.30;42.57;102606.48;105705;1254;61272;-71
2023/04/03 09:55:56;;;;;;;2.80;0.80;;;;;;;9.39;40.82;102599.57;108109;1254;76052;-67
2023/04/03 09:58:26;;;;;;;1.90;0.70;;;;;;;9.40;41.16;102598.13;108831;1254;69764;-68
2023/04/03 10:01:02;;;;;;;3.90;1.00;;;;;;;9.31;41.72;102593.86;107203;1256;71549;-70
2023/04/03 10:03:32;;;;;;;3.50;0.90;;;;;;;9.12;40.73;102592.00;106786;1253;61367;-69
2023/04/03 10:06:00;;;;;;;3.10;0.80;;;;;;;8.89;40.96;102598.67;107274;1253;61166;-69
2023/04/03 10:08:34;;;;;;;2.10;0.90;;;;;;;8.73;41.30;102593.40;107617;1254;75430;-69
2023/04/03 10:11:06;;;;;;;3.20;0.90;;;;;;;8.61;42.06;102590.03;109092;1256;70501;-69
2023/04/03 10:13:32;;;;;;;1.80;0.80;;;;;;;8.70;42.72;102596.45;109074;1254;72502;-69
2023/04/03 10:16:16;;;;;;;2.90;0.80;;;;;;;8.78;40.91;102587.89;109286;1253;59057;-69
2023/04/03 10:19:13;;;;;;;4.00;0.80;;;;;;;8.86;40.65;102589.38;108975;1258;59661;-69
2023/04/03 10:22:12;;;;;;;2.00;0.60;;;;;;;9.08;39.94;102574.61;109287;1253;74765;-68
2023/04/03 10:25:17;;;;;;;3.10;0.70;;;;;;;9.53;40.26;102577.29;106720;1258;70978;-72
2023/04/03 10:27:57;;;;;;;2.40;0.70;;;;;;;9.98;39.05;102567.71;105821;1256;72710;-73
2023/04/03 10:30:38;;;;;;;2.40;0.60;;;;;;;10.16;39.59;102570.06;105787;1256;61384;-71
2023/04/03 10:33:29;;;;;;;3.30;0.90;;;;;;;10.31;38.96;102570.53;106041;1257;61235;-72
2023/04/03 10:36:05;;;;;;;2.50;0.70;;;;;;;10.45;39.19;102570.05;105698;1254;73520;-72
2023/04/03 10:39:06;;;;;;;3.40;0.90;;;;;;;10.35;37.59;102568.10;105791;1253;71149;-71
2023/04/03 10:41:59;;;;;;;2.70;0.70;;;;;;;10.15;37.20;102570.93;105739;1254;72392;-71
2023/04/03 10:44:56;;;;;;;2.20;0.50;;;;;;;9.85;37.48;102569.60;105822;1253;61289;-72
2023/04/03 10:47:41;;;;;;;2.80;0.70;;;;;;;9.59;37.83;102568.89;105858;1256;61370;-70
2023/04/03 10:50:25;;;;;;;2.30;0.80;;;;;;;9.25;37.71;102568.88;105786;1257;73450;-71
2023/04/03 10:53:01;;;;;;;2.10;0.60;;;;;;;9.01;38.46;102566.86;105672;1257;71340;-71
2023/04/03 10:55:43;;;;;;;3.60;0.80;;;;;;;8.78;38.61;102567.21;105748;1256;72727;-74
2023/04/03 10:58:24;;;;;;;2.50;0.80;;;;;;;8.62;39.40;102569.04;105462;1259;61222;-72
2023/04/03 11:00:54;;;;;;;2.10;0.70;;;;;;;8.45;40.02;102564.05;105687;1256;61264;-70
2023/04/03 11:03:29;;;;;;;2.10;0.70;;;;;;;8.35;39.94;102560.41;105468;1254;73546;-70
2023/04/03 11:05:57;;;;;;;2.20;0.60;;;;;;;8.24;40.76;102561.23;105709;1253;71232;-71
2023/04/03 11:08:33;;;;;;;2.70;1.00;;;;;;;8.12;40.86;102556.45;105783;1257;70198;-72
2023/04/03 11:11:06;;;;;;;2.90;0.80;;;;;;;8.16;41.89;102554.23;105907;1258;61336;-74
2023/04/03 11:13:49;;;;;;;2.70;0.70;;;;;;;8.32;41.15;102551.79;105895;1253;61353;-70
2023/04/03 11:16:23;;;;;;;2.70;0.80;;;;;;;8.48;40.97;102552.58;105869;1256;73149;-73
2023/04/03 11:19:04;;;;;;;3.20;0.90;;;;;;;8.69;40.88;102550.63;105797;1258;69788;-75
2023/04/03 11:21:38;;;;;;;2.90;0.60;;;;;;;9.00;41.24;102546.52;105523;1255;71128;-72
2023/04/03 11:24:13;;;;;;;3.10;0.70;;;;;;;9.20;39.30;102541.73;105379;1258;61707;-75
2023/04/03 11:26:42;;;;;;;2.60;0.70;;;;;;;9.30;38.54;102539.54;105857;1256;61247;-70
2023/04/03 11:29:15;;;;;;;2.90;0.80;;;;;;;9.51;39.25;102529.58;105483;1260;73784;-71
2023/04/03 11:32:21;;;;;;;2.70;0.70;;;;;;;9.85;38.95;102523.52;105787;1254;70965;-72
2023/04/03 11:34:53;;;;;;;2.40;0.70;;;;;;;10.17;38.35;102518.05;105764;1257;72783;-72
2023/04/03 11:37:47;;;;;;;3.20;0.90;;;;;;;10.26;36.99;102518.36;105876;1259;61261;-71